sensor_id;sensor_type;location;lat;lon;timestamp;P1;durP1;ratioP1;P2;durP2;ratioP2
19525;SDS011;9907;42.676;26.348;2023-02-15T00:00:52;12.97;;;10.40;;
19525;SDS011;9907;42.676;26.348;2023-02-15T00:03:20;11.97;;;10.30;;
19525;SDS011;9907;42.676;26.348;2023-02-15T00:05:46;12.90;;;10.80;;
19525;SDS011;9907;42.676;26.348;2023-02-15T00:08:12;14.47;;;11.00;;
19525;SDS011;9907;42.676;26.348;2023-02-15T00:10:37;14.30;;;10.67;;
19525;SDS011;9907;42.676;26.348;2023-02-15T00:13:03;11.90;;;10.50;;
19525;SDS011;9907;42.676;26.348;2023-02-15T00:15:28;12.97;;;10.27;;
19525;SDS011;9907;42.676;26.348;2023-02-15T00:17:54;11.50;;;10.30;;
19525;SDS011;9907;42.676;26.348;2023-02-15T00:20:20;13.00;;;10.90;;
19525;SDS011;9907;42.676;26.348;2023-02-15T00:22:45;12.37;;;10.87;;
19525;SDS011;9907;42.676;26.348;2023-02-15T00:25:10;12.63;;;10.97;;
19525;SDS011;9907;42.676;26.348;2023-02-15T00:27:36;11.87;;;10.50;;
19525;SDS011;9907;42.676;26.348;2023-02-15T00:30:01;12.97;;;10.07;;
19525;SDS011;9907;42.676;26.348;2023-02-15T00:32:27;11.27;;;10.07;;
19525;SDS011;9907;42.676;26.348;2023-02-15T00:34:52;13.43;;;10.37;;
19525;SDS011;9907;42.676;26.348;2023-02-15T00:37:18;12.43;;;10.87;;
19525;SDS011;9907;42.676;26.348;2023-02-15T00:39:43;13.90;;;10.97;;
19525;SDS011;9907;42.676;26.348;2023-02-15T00:42:08;14.10;;;11.67;;
19525;SDS011;9907;42.676;26.348;2023-02-15T00:44:34;12.33;;;11.03;;
19525;SDS011;9907;42.676;26.348;2023-02-15T00:46:59;13.93;;;11.20;;
19525;SDS011;9907;42.676;26.348;2023-02-15T00:49:25;13.03;;;11.23;;
19525;SDS011;9907;42.676;26.348;2023-02-15T00:51:50;14.27;;;11.30;;
19525;SDS011;9907;42.676;26.348;2023-02-15T00:54:16;13.50;;;12.00;;
19525;SDS011;9907;42.676;26.348;2023-02-15T00:56:41;12.93;;;11.17;;
19525;SDS011;9907;42.676;26.348;2023-02-15T00:59:08;12.83;;;11.50;;
19525;SDS011;9907;42.676;26.348;2023-02-15T01:01:33;13.70;;;10.77;;
19525;SDS011;9907;42.676;26.348;2023-02-15T01:03:59;13.83;;;12.43;;
19525;SDS011;9907;42.676;26.348;2023-02-15T01:06:24;13.97;;;12.20;;
19525;SDS011;9907;42.676;26.348;2023-02-15T01:08:50;16.00;;;12.07;;
19525;SDS011;9907;42.676;26.348;2023-02-15T01:11:17;14.10;;;12.10;;
19525;SDS011;9907;42.676;26.348;2023-02-15T01:13:48;13.00;;;10.63;;
19525;SDS011;9907;42.676;26.348;2023-02-15T01:16:19;14.90;;;12.53;;
19525;SDS011;9907;42.676;26.348;2023-02-15T01:18:45;14.23;;;12.33;;
19525;SDS011;9907;42.676;26.348;2023-02-15T01:21:14;16.10;;;13.00;;
19525;SDS011;9907;42.676;26.348;2023-02-15T01:23:43;14.37;;;12.83;;
19525;SDS011;9907;42.676;26.348;2023-02-15T01:26:09;13.83;;;12.13;;
19525;SDS011;9907;42.676;26.348;2023-02-15T01:28:35;16.23;;;13.17;;
19525;SDS011;9907;42.676;26.348;2023-02-15T01:31:08;15.03;;;12.13;;
19525;SDS011;9907;42.676;26.348;2023-02-15T01:33:35;14.60;;;12.70;;
19525;SDS011;9907;42.676;26.348;2023-02-15T01:36:01;17.10;;;13.80;;
19525;SDS011;9907;42.676;26.348;2023-02-15T01:38:27;15.30;;;12.87;;
19525;SDS011;9907;42.676;26.348;2023-02-15T01:40:53;15.43;;;12.73;;
19525;SDS011;9907;42.676;26.348;2023-02-15T01:43:42;16.50;;;13.70;;
19525;SDS011;9907;42.676;26.348;2023-02-15T01:46:10;16.40;;;13.67;;
19525;SDS011;9907;42.676;26.348;2023-02-15T01:48:46;17.00;;;13.80;;
19525;SDS011;9907;42.676;26.348;2023-02-15T01:51:14;17.00;;;13.47;;
19525;SDS011;9907;42.676;26.348;2023-02-15T01:54:19;15.90;;;13.17;;
19525;SDS011;9907;42.676;26.348;2023-02-15T01:56:41;16.70;;;14.23;;
19525;SDS011;9907;42.676;26.348;2023-02-15T01:59:09;16.93;;;14.47;;
19525;SDS011;9907;42.676;26.348;2023-02-15T02:01:44;18.13;;;14.10;;
19525;SDS011;9907;42.676;26.348;2023-02-15T02:06:56;16.63;;;13.83;;
19525;SDS011;9907;42.676;26.348;2023-02-15T02:09:23;17.93;;;13.47;;
19525;SDS011;9907;42.676;26.348;2023-02-15T02:11:49;16.23;;;13.80;;
19525;SDS011;9907;42.676;26.348;2023-02-15T02:14:15;16.03;;;14.33;;
19525;SDS011;9907;42.676;26.348;2023-02-15T02:16:57;17.33;;;14.53;;
19525;SDS011;9907;42.676;26.348;2023-02-15T02:49:15;16.97;;;13.97;;
19525;SDS011;9907;42.676;26.348;2023-02-15T02:51:41;18.23;;;13.93;;
19525;SDS011;9907;42.676;26.348;2023-02-15T02:54:06;18.93;;;14.70;;
19525;SDS011;9907;42.676;26.348;2023-02-15T02:59:15;17.50;;;14.50;;
19525;SDS011;9907;42.676;26.348;2023-02-15T03:01:48;16.47;;;14.07;;
19525;SDS011;9907;42.676;26.348;2023-02-15T03:04:30;16.97;;;14.63;;
19525;SDS011;9907;42.676;26.348;2023-02-15T03:07:00;17.17;;;14.37;;
19525;SDS011;9907;42.676;26.348;2023-02-15T03:09:29;17.17;;;14.83;;
19525;SDS011;9907;42.676;26.348;2023-02-15T03:12:16;18.43;;;14.67;;
19525;SDS011;9907;42.676;26.348;2023-02-15T03:14:49;17.30;;;14.93;;
19525;SDS011;9907;42.676;26.348;2023-02-15T03:17:19;18.57;;;14.90;;
19525;SDS011;9907;42.676;26.348;2023-02-15T03:19:47;15.60;;;13.90;;
19525;SDS011;9907;42.676;26.348;2023-02-15T03:22:18;16.67;;;13.70;;
19525;SDS011;9907;42.676;26.348;2023-02-15T03:25:04;19.17;;;14.17;;
19525;SDS011;9907;42.676;26.348;2023-02-15T03:27:39;17.90;;;14.63;;
19525;SDS011;9907;42.676;26.348;2023-02-15T03:30:08;16.17;;;13.90;;
19525;SDS011;9907;42.676;26.348;2023-02-15T03:32:37;15.73;;;14.03;;
19525;SDS011;9907;42.676;26.348;2023-02-15T03:35:04;18.57;;;15.83;;
19525;SDS011;9907;42.676;26.348;2023-02-15T03:37:46;18.13;;;14.03;;
19525;SDS011;9907;42.676;26.348;2023-02-15T03:40:25;16.20;;;13.93;;
19525;SDS011;9907;42.676;26.348;2023-02-15T03:43:30;20.73;;;15.10;;
19525;SDS011;9907;42.676;26.348;2023-02-15T03:46:06;18.03;;;14.43;;
19525;SDS011;9907;42.676;26.348;2023-02-15T03:48:37;20.10;;;14.23;;
19525;SDS011;9907;42.676;26.348;2023-02-15T03:51:12;18.50;;;14.47;;
19525;SDS011;9907;42.676;26.348;2023-02-15T03:54:04;17.87;;;15.20;;
19525;SDS011;9907;42.676;26.348;2023-02-15T03:56:30;19.97;;;16.03;;
19525;SDS011;9907;42.676;26.348;2023-02-15T03:58:59;17.03;;;14.53;;
19525;SDS011;9907;42.676;26.348;2023-02-15T04:04:32;16.33;;;14.17;;
19525;SDS011;9907;42.676;26.348;2023-02-15T04:07:01;16.77;;;14.93;;
19525;SDS011;9907;42.676;26.348;2023-02-15T04:09:28;17.37;;;15.07;;
19525;SDS011;9907;42.676;26.348;2023-02-15T04:12:12;19.17;;;15.03;;
19525;SDS011;9907;42.676;26.348;2023-02-15T04:14:37;16.20;;;14.43;;
19525;SDS011;9907;42.676;26.348;2023-02-15T04:17:22;16.87;;;14.40;;
19525;SDS011;9907;42.676;26.348;2023-02-15T04:19:47;19.50;;;15.73;;
19525;SDS011;9907;42.676;26.348;2023-02-15T04:22:32;19.37;;;14.10;;
19525;SDS011;9907;42.676;26.348;2023-02-15T04:25:16;17.37;;;14.97;;
19525;SDS011;9907;42.676;26.348;2023-02-15T04:27:43;18.37;;;15.03;;
19525;SDS011;9907;42.676;26.348;2023-02-15T04:30:11;17.60;;;14.90;;
19525;SDS011;9907;42.676;26.348;2023-02-15T04:32:38;16.30;;;14.53;;
19525;SDS011;9907;42.676;26.348;2023-02-15T04:35:04;17.70;;;14.87;;
19525;SDS011;9907;42.676;26.348;2023-02-15T04:37:31;18.37;;;15.33;;
19525;SDS011;9907;42.676;26.348;2023-02-15T04:39:56;18.83;;;15.87;;
19525;SDS011;9907;42.676;26.348;2023-02-15T04:42:24;18.50;;;16.20;;
19525;SDS011;9907;42.676;26.348;2023-02-15T04:44:50;17.37;;;14.83;;
19525;SDS011;9907;42.676;26.348;2023-02-15T04:47:16;17.93;;;15.67;;
19525;SDS011;9907;42.676;26.348;2023-02-15T04:49:42;17.97;;;15.17;;
19525;SDS011;9907;42.676;26.348;2023-02-15T04:52:08;17.77;;;14.60;;
19525;SDS011;9907;42.676;26.348;2023-02-15T04:54:33;17.00;;;14.63;;
19525;SDS011;9907;42.676;26.348;2023-02-15T04:56:59;18.40;;;14.33;;
19525;SDS011;9907;42.676;26.348;2023-02-15T04:59:24;17.93;;;14.33;;
19525;SDS011;9907;42.676;26.348;2023-02-15T05:01:50;17.27;;;14.37;;
19525;SDS011;9907;42.676;26.348;2023-02-15T05:04:15;16.20;;;14.07;;
19525;SDS011;9907;42.676;26.348;2023-02-15T05:06:41;15.67;;;14.07;;
19525;SDS011;9907;42.676;26.348;2023-02-15T05:09:06;17.67;;;14.50;;
19525;SDS011;9907;42.676;26.348;2023-02-15T05:11:32;17.73;;;15.23;;
19525;SDS011;9907;42.676;26.348;2023-02-15T05:13:57;16.53;;;14.37;;
19525;SDS011;9907;42.676;26.348;2023-02-15T05:16:23;18.40;;;15.10;;
19525;SDS011;9907;42.676;26.348;2023-02-15T05:18:49;18.97;;;15.60;;
19525;SDS011;9907;42.676;26.348;2023-02-15T05:21:14;19.00;;;15.37;;
19525;SDS011;9907;42.676;26.348;2023-02-15T05:23:41;19.87;;;15.37;;
19525;SDS011;9907;42.676;26.348;2023-02-15T05:26:08;17.80;;;14.73;;
19525;SDS011;9907;42.676;26.348;2023-02-15T05:28:55;17.30;;;14.50;;
19525;SDS011;9907;42.676;26.348;2023-02-15T05:31:21;17.10;;;14.67;;
19525;SDS011;9907;42.676;26.348;2023-02-15T05:33:46;19.77;;;15.43;;
19525;SDS011;9907;42.676;26.348;2023-02-15T05:36:12;19.20;;;13.87;;
19525;SDS011;9907;42.676;26.348;2023-02-15T05:38:38;19.27;;;15.47;;
19525;SDS011;9907;42.676;26.348;2023-02-15T05:41:04;17.47;;;15.13;;
19525;SDS011;9907;42.676;26.348;2023-02-15T05:43:34;17.47;;;15.53;;
19525;SDS011;9907;42.676;26.348;2023-02-15T05:46:00;18.20;;;15.40;;
19525;SDS011;9907;42.676;26.348;2023-02-15T05:48:26;19.07;;;14.67;;
19525;SDS011;9907;42.676;26.348;2023-02-15T05:50:59;16.77;;;14.30;;
19525;SDS011;9907;42.676;26.348;2023-02-15T05:53:28;17.53;;;14.47;;
19525;SDS011;9907;42.676;26.348;2023-02-15T05:55:54;18.40;;;14.43;;
19525;SDS011;9907;42.676;26.348;2023-02-15T05:58:27;17.27;;;14.23;;
19525;SDS011;9907;42.676;26.348;2023-02-15T06:00:56;18.13;;;15.40;;
19525;SDS011;9907;42.676;26.348;2023-02-15T06:03:23;17.10;;;14.23;;
19525;SDS011;9907;42.676;26.348;2023-02-15T06:05:50;18.23;;;15.07;;
19525;SDS011;9907;42.676;26.348;2023-02-15T06:08:16;17.23;;;14.10;;
19525;SDS011;9907;42.676;26.348;2023-02-15T06:10:42;19.30;;;14.73;;
19525;SDS011;9907;42.676;26.348;2023-02-15T06:13:07;19.37;;;14.97;;
19525;SDS011;9907;42.676;26.348;2023-02-15T06:15:33;23.87;;;14.47;;
19525;SDS011;9907;42.676;26.348;2023-02-15T06:17:58;18.30;;;13.83;;
19525;SDS011;9907;42.676;26.348;2023-02-15T06:20:24;19.73;;;14.73;;
19525;SDS011;9907;42.676;26.348;2023-02-15T06:22:50;19.63;;;14.87;;
19525;SDS011;9907;42.676;26.348;2023-02-15T06:25:15;19.37;;;15.10;;
19525;SDS011;9907;42.676;26.348;2023-02-15T06:27:41;15.00;;;12.90;;
19525;SDS011;9907;42.676;26.348;2023-02-15T06:30:07;15.13;;;13.40;;
19525;SDS011;9907;42.676;26.348;2023-02-15T06:32:34;19.33;;;14.90;;
19525;SDS011;9907;42.676;26.348;2023-02-15T06:35:00;17.20;;;13.90;;
19525;SDS011;9907;42.676;26.348;2023-02-15T06:37:25;16.50;;;13.63;;
19525;SDS011;9907;42.676;26.348;2023-02-15T06:39:51;14.47;;;12.27;;
19525;SDS011;9907;42.676;26.348;2023-02-15T06:42:16;17.27;;;12.90;;
19525;SDS011;9907;42.676;26.348;2023-02-15T06:44:43;14.67;;;12.50;;
19525;SDS011;9907;42.676;26.348;2023-02-15T06:47:09;14.77;;;12.67;;
19525;SDS011;9907;42.676;26.348;2023-02-15T06:49:35;15.23;;;12.63;;
19525;SDS011;9907;42.676;26.348;2023-02-15T06:52:01;12.63;;;11.33;;
19525;SDS011;9907;42.676;26.348;2023-02-15T06:54:26;15.90;;;12.60;;
19525;SDS011;9907;42.676;26.348;2023-02-15T06:56:52;13.47;;;11.57;;
19525;SDS011;9907;42.676;26.348;2023-02-15T06:59:17;12.40;;;11.10;;
19525;SDS011;9907;42.676;26.348;2023-02-15T07:01:45;14.43;;;11.87;;
19525;SDS011;9907;42.676;26.348;2023-02-15T07:04:11;12.57;;;11.27;;
19525;SDS011;9907;42.676;26.348;2023-02-15T07:06:36;14.83;;;12.30;;
19525;SDS011;9907;42.676;26.348;2023-02-15T07:09:02;15.57;;;11.77;;
19525;SDS011;9907;42.676;26.348;2023-02-15T07:11:29;16.17;;;12.37;;
19525;SDS011;9907;42.676;26.348;2023-02-15T07:14:14;12.90;;;11.60;;
19525;SDS011;9907;42.676;26.348;2023-02-15T07:16:39;15.57;;;11.97;;
19525;SDS011;9907;42.676;26.348;2023-02-15T07:19:05;13.77;;;11.57;;
19525;SDS011;9907;42.676;26.348;2023-02-15T07:21:32;13.53;;;11.53;;
19525;SDS011;9907;42.676;26.348;2023-02-15T07:23:58;13.90;;;11.77;;
19525;SDS011;9907;42.676;26.348;2023-02-15T07:26:23;14.53;;;11.97;;
19525;SDS011;9907;42.676;26.348;2023-02-15T07:28:49;16.00;;;12.17;;
19525;SDS011;9907;42.676;26.348;2023-02-15T07:31:15;14.77;;;12.47;;
19525;SDS011;9907;42.676;26.348;2023-02-15T07:33:40;15.60;;;12.40;;
19525;SDS011;9907;42.676;26.348;2023-02-15T07:36:06;14.13;;;11.37;;
19525;SDS011;9907;42.676;26.348;2023-02-15T07:38:37;13.67;;;12.27;;
19525;SDS011;9907;42.676;26.348;2023-02-15T07:41:08;15.80;;;11.90;;
19525;SDS011;9907;42.676;26.348;2023-02-15T07:43:35;15.50;;;11.53;;
19525;SDS011;9907;42.676;26.348;2023-02-15T07:46:03;16.90;;;12.17;;
19525;SDS011;9907;42.676;26.348;2023-02-15T07:48:32;13.90;;;12.17;;
19525;SDS011;9907;42.676;26.348;2023-02-15T07:51:03;13.70;;;11.40;;
19525;SDS011;9907;42.676;26.348;2023-02-15T07:53:30;13.73;;;11.20;;
19525;SDS011;9907;42.676;26.348;2023-02-15T07:56:05;14.03;;;11.70;;
19525;SDS011;9907;42.676;26.348;2023-02-15T07:58:34;15.63;;;11.80;;
19525;SDS011;9907;42.676;26.348;2023-02-15T08:03:46;16.73;;;12.07;;
19525;SDS011;9907;42.676;26.348;2023-02-15T08:06:11;13.60;;;10.73;;
19525;SDS011;9907;42.676;26.348;2023-02-15T08:08:38;18.23;;;13.03;;
19525;SDS011;9907;42.676;26.348;2023-02-15T08:13:50;12.10;;;10.83;;
19525;SDS011;9907;42.676;26.348;2023-02-15T08:16:32;14.40;;;11.27;;
19525;SDS011;9907;42.676;26.348;2023-02-15T08:19:04;14.07;;;11.20;;
19525;SDS011;9907;42.676;26.348;2023-02-15T08:21:32;14.10;;;11.13;;
19525;SDS011;9907;42.676;26.348;2023-02-15T08:23:59;15.40;;;10.30;;
19525;SDS011;9907;42.676;26.348;2023-02-15T08:26:25;12.50;;;10.73;;
19525;SDS011;9907;42.676;26.348;2023-02-15T08:28:52;13.27;;;10.43;;
19525;SDS011;9907;42.676;26.348;2023-02-15T08:31:18;11.83;;;10.10;;
19525;SDS011;9907;42.676;26.348;2023-02-15T08:33:44;13.53;;;10.60;;
19525;SDS011;9907;42.676;26.348;2023-02-15T08:36:13;14.17;;;11.27;;
19525;SDS011;9907;42.676;26.348;2023-02-15T08:38:40;14.70;;;10.73;;
19525;SDS011;9907;42.676;26.348;2023-02-15T08:41:25;15.30;;;10.97;;
19525;SDS011;9907;42.676;26.348;2023-02-15T08:43:53;12.27;;;9.83;;
19525;SDS011;9907;42.676;26.348;2023-02-15T08:46:20;14.33;;;10.07;;
19525;SDS011;9907;42.676;26.348;2023-02-15T08:48:46;12.77;;;10.60;;
19525;SDS011;9907;42.676;26.348;2023-02-15T08:51:13;11.60;;;10.00;;
19525;SDS011;9907;42.676;26.348;2023-02-15T08:53:51;12.40;;;10.63;;
19525;SDS011;9907;42.676;26.348;2023-02-15T08:56:24;11.83;;;10.53;;
19525;SDS011;9907;42.676;26.348;2023-02-15T08:58:54;13.37;;;10.37;;
19525;SDS011;9907;42.676;26.348;2023-02-15T09:01:22;11.60;;;9.77;;
19525;SDS011;9907;42.676;26.348;2023-02-15T09:03:49;11.50;;;9.60;;
19525;SDS011;9907;42.676;26.348;2023-02-15T09:06:18;10.50;;;9.23;;
19525;SDS011;9907;42.676;26.348;2023-02-15T09:08:44;11.53;;;10.17;;
19525;SDS011;9907;42.676;26.348;2023-02-15T09:13:38;10.40;;;9.27;;
19525;SDS011;9907;42.676;26.348;2023-02-15T09:16:05;11.57;;;9.27;;
19525;SDS011;9907;42.676;26.348;2023-02-15T09:18:35;9.63;;;8.63;;
19525;SDS011;9907;42.676;26.348;2023-02-15T09:21:03;11.80;;;8.80;;
19525;SDS011;9907;42.676;26.348;2023-02-15T09:23:30;16.00;;;10.37;;
19525;SDS011;9907;42.676;26.348;2023-02-15T09:25:55;9.77;;;8.53;;
19525;SDS011;9907;42.676;26.348;2023-02-15T09:28:21;9.83;;;8.83;;
19525;SDS011;9907;42.676;26.348;2023-02-15T09:30:49;10.00;;;8.50;;
19525;SDS011;9907;42.676;26.348;2023-02-15T09:33:14;10.63;;;9.33;;
19525;SDS011;9907;42.676;26.348;2023-02-15T09:35:40;12.17;;;9.87;;
19525;SDS011;9907;42.676;26.348;2023-02-15T09:38:05;12.13;;;10.53;;
19525;SDS011;9907;42.676;26.348;2023-02-15T09:40:31;14.67;;;10.97;;
19525;SDS011;9907;42.676;26.348;2023-02-15T09:43:13;12.70;;;10.13;;
19525;SDS011;9907;42.676;26.348;2023-02-15T10:09:24;11.00;;;8.90;;
19525;SDS011;9907;42.676;26.348;2023-02-15T10:12:28;12.27;;;8.60;;
19525;SDS011;9907;42.676;26.348;2023-02-15T10:15:15;11.93;;;9.40;;
19525;SDS011;9907;42.676;26.348;2023-02-15T10:23:28;12.10;;;8.73;;
19525;SDS011;9907;42.676;26.348;2023-02-15T10:31:22;9.53;;;8.03;;
19525;SDS011;9907;42.676;26.348;2023-02-15T10:34:15;10.67;;;8.40;;
19525;SDS011;9907;42.676;26.348;2023-02-15T10:53:07;11.67;;;8.50;;
19525;SDS011;9907;42.676;26.348;2023-02-15T11:06:41;10.77;;;7.77;;
19525;SDS011;9907;42.676;26.348;2023-02-15T11:09:13;8.77;;;7.83;;
19525;SDS011;9907;42.676;26.348;2023-02-15T11:11:44;9.80;;;8.00;;
19525;SDS011;9907;42.676;26.348;2023-02-15T11:17:10;11.27;;;8.20;;
19525;SDS011;9907;42.676;26.348;2023-02-15T11:22:37;11.70;;;7.80;;
19525;SDS011;9907;42.676;26.348;2023-02-15T11:25:05;8.97;;;7.90;;
19525;SDS011;9907;42.676;26.348;2023-02-15T11:27:42;8.70;;;7.03;;
19525;SDS011;9907;42.676;26.348;2023-02-15T11:30:17;8.73;;;7.83;;
19525;SDS011;9907;42.676;26.348;2023-02-15T11:32:47;9.00;;;7.90;;
19525;SDS011;9907;42.676;26.348;2023-02-15T11:38:04;10.63;;;7.90;;
19525;SDS011;9907;42.676;26.348;2023-02-15T11:40:35;9.57;;;8.00;;
19525;SDS011;9907;42.676;26.348;2023-02-15T11:45:57;10.33;;;8.60;;
19525;SDS011;9907;42.676;26.348;2023-02-15T11:48:23;9.40;;;8.10;;
19525;SDS011;9907;42.676;26.348;2023-02-15T11:50:48;10.40;;;8.20;;
19525;SDS011;9907;42.676;26.348;2023-02-15T11:53:18;9.70;;;8.70;;
19525;SDS011;9907;42.676;26.348;2023-02-15T11:55:47;10.23;;;9.00;;
19525;SDS011;9907;42.676;26.348;2023-02-15T12:01:02;10.70;;;8.80;;
19525;SDS011;9907;42.676;26.348;2023-02-15T12:03:48;9.60;;;8.43;;
19525;SDS011;9907;42.676;26.348;2023-02-15T12:06:24;11.80;;;8.73;;
19525;SDS011;9907;42.676;26.348;2023-02-15T12:09:03;9.77;;;8.23;;
19525;SDS011;9907;42.676;26.348;2023-02-15T12:11:49;15.40;;;9.63;;
19525;SDS011;9907;42.676;26.348;2023-02-15T12:14:15;10.37;;;9.27;;
19525;SDS011;9907;42.676;26.348;2023-02-15T12:16:48;10.50;;;8.67;;
19525;SDS011;9907;42.676;26.348;2023-02-15T12:19:32;10.00;;;7.97;;
19525;SDS011;9907;42.676;26.348;2023-02-15T12:22:02;11.03;;;8.90;;
19525;SDS011;9907;42.676;26.348;2023-02-15T12:24:30;14.80;;;10.20;;
19525;SDS011;9907;42.676;26.348;2023-02-15T12:27:06;9.70;;;8.30;;
19525;SDS011;9907;42.676;26.348;2023-02-15T12:29:51;8.90;;;7.90;;
19525;SDS011;9907;42.676;26.348;2023-02-15T12:32:24;11.93;;;8.57;;
19525;SDS011;9907;42.676;26.348;2023-02-15T12:35:16;10.90;;;8.50;;
19525;SDS011;9907;42.676;26.348;2023-02-15T12:37:53;9.90;;;7.70;;
19525;SDS011;9907;42.676;26.348;2023-02-15T12:43:36;8.87;;;7.90;;
19525;SDS011;9907;42.676;26.348;2023-02-15T12:51:47;9.30;;;8.30;;
19525;SDS011;9907;42.676;26.348;2023-02-15T12:54:25;9.00;;;7.93;;
19525;SDS011;9907;42.676;26.348;2023-02-15T12:57:23;9.53;;;8.07;;
19525;SDS011;9907;42.676;26.348;2023-02-15T13:02:29;9.77;;;8.43;;
19525;SDS011;9907;42.676;26.348;2023-02-15T13:05:13;8.87;;;7.20;;
19525;SDS011;9907;42.676;26.348;2023-02-15T13:07:48;10.60;;;8.40;;
19525;SDS011;9907;42.676;26.348;2023-02-15T13:10:21;9.17;;;7.63;;
19525;SDS011;9907;42.676;26.348;2023-02-15T13:12:49;10.47;;;8.33;;
19525;SDS011;9907;42.676;26.348;2023-02-15T13:15:29;10.33;;;8.03;;
19525;SDS011;9907;42.676;26.348;2023-02-15T13:17:59;9.00;;;8.00;;
19525;SDS011;9907;42.676;26.348;2023-02-15T13:20:26;9.37;;;8.07;;
19525;SDS011;9907;42.676;26.348;2023-02-15T13:23:01;8.80;;;7.67;;
19525;SDS011;9907;42.676;26.348;2023-02-15T13:25:31;8.70;;;7.80;;
19525;SDS011;9907;42.676;26.348;2023-02-15T13:28:11;9.53;;;8.50;;
19525;SDS011;9907;42.676;26.348;2023-02-15T13:30:42;11.90;;;8.50;;
19525;SDS011;9907;42.676;26.348;2023-02-15T13:33:14;8.90;;;8.00;;
19525;SDS011;9907;42.676;26.348;2023-02-15T13:38:32;8.23;;;7.33;;
19525;SDS011;9907;42.676;26.348;2023-02-15T13:41:09;8.83;;;7.67;;
19525;SDS011;9907;42.676;26.348;2023-02-15T13:43:52;11.40;;;8.27;;
19525;SDS011;9907;42.676;26.348;2023-02-15T13:57:27;9.53;;;8.43;;
19525;SDS011;9907;42.676;26.348;2023-02-15T14:00:17;11.57;;;7.50;;
19525;SDS011;9907;42.676;26.348;2023-02-15T14:03:19;9.30;;;7.90;;
19525;SDS011;9907;42.676;26.348;2023-02-15T14:11:21;10.43;;;8.20;;
19525;SDS011;9907;42.676;26.348;2023-02-15T14:21:51;9.30;;;7.53;;
19525;SDS011;9907;42.676;26.348;2023-02-15T14:30:20;17.00;;;10.60;;
19525;SDS011;9907;42.676;26.348;2023-02-15T14:32:51;19.70;;;12.03;;
19525;SDS011;9907;42.676;26.348;2023-02-15T14:35:21;45.47;;;23.40;;
19525;SDS011;9907;42.676;26.348;2023-02-15T14:37:52;46.03;;;21.30;;
19525;SDS011;9907;42.676;26.348;2023-02-15T14:56:44;9.97;;;8.63;;
19525;SDS011;9907;42.676;26.348;2023-02-15T14:59:14;10.07;;;8.43;;
19525;SDS011;9907;42.676;26.348;2023-02-15T15:01:50;11.30;;;8.40;;
19525;SDS011;9907;42.676;26.348;2023-02-15T15:07:24;9.77;;;8.33;;
19525;SDS011;9907;42.676;26.348;2023-02-15T15:10:32;12.23;;;9.50;;
19525;SDS011;9907;42.676;26.348;2023-02-15T15:15:57;25.33;;;11.93;;
19525;SDS011;9907;42.676;26.348;2023-02-15T15:18:53;12.27;;;9.80;;
19525;SDS011;9907;42.676;26.348;2023-02-15T15:49:39;11.53;;;10.27;;
19525;SDS011;9907;42.676;26.348;2023-02-15T15:52:15;12.03;;;10.13;;
19525;SDS011;9907;42.676;26.348;2023-02-15T15:54:44;14.37;;;11.00;;
19525;SDS011;9907;42.676;26.348;2023-02-15T15:57:31;11.67;;;10.40;;
19525;SDS011;9907;42.676;26.348;2023-02-15T16:00:03;12.23;;;9.80;;
19525;SDS011;9907;42.676;26.348;2023-02-15T16:02:31;12.47;;;11.20;;
19525;SDS011;9907;42.676;26.348;2023-02-15T16:05:05;16.50;;;11.43;;
19525;SDS011;9907;42.676;26.348;2023-02-15T16:07:34;14.70;;;11.47;;
19525;SDS011;9907;42.676;26.348;2023-02-15T16:10:04;16.93;;;11.53;;
19525;SDS011;9907;42.676;26.348;2023-02-15T16:12:36;12.73;;;11.40;;
19525;SDS011;9907;42.676;26.348;2023-02-15T16:15:13;14.23;;;11.70;;
19525;SDS011;9907;42.676;26.348;2023-02-15T16:17:40;16.90;;;11.40;;
19525;SDS011;9907;42.676;26.348;2023-02-15T16:20:30;15.40;;;12.37;;
19525;SDS011;9907;42.676;26.348;2023-02-15T16:25:47;14.87;;;11.00;;
19525;SDS011;9907;42.676;26.348;2023-02-15T16:28:15;14.70;;;11.23;;
19525;SDS011;9907;42.676;26.348;2023-02-15T16:30:43;14.23;;;11.83;;
19525;SDS011;9907;42.676;26.348;2023-02-15T16:33:13;13.57;;;11.10;;
19525;SDS011;9907;42.676;26.348;2023-02-15T16:36:01;19.03;;;13.17;;
19525;SDS011;9907;42.676;26.348;2023-02-15T16:41:07;17.40;;;12.63;;
19525;SDS011;9907;42.676;26.348;2023-02-15T16:43:36;13.67;;;10.77;;
19525;SDS011;9907;42.676;26.348;2023-02-15T16:46:03;14.97;;;11.60;;
19525;SDS011;9907;42.676;26.348;2023-02-15T16:48:31;14.53;;;11.00;;
19525;SDS011;9907;42.676;26.348;2023-02-15T16:51:00;11.67;;;9.50;;
19525;SDS011;9907;42.676;26.348;2023-02-15T16:53:27;12.70;;;9.93;;
19525;SDS011;9907;42.676;26.348;2023-02-15T16:55:57;12.83;;;10.13;;
19525;SDS011;9907;42.676;26.348;2023-02-15T16:58:30;12.13;;;10.13;;
19525;SDS011;9907;42.676;26.348;2023-02-15T17:01:02;12.27;;;9.83;;
19525;SDS011;9907;42.676;26.348;2023-02-15T17:03:32;14.53;;;11.67;;
19525;SDS011;9907;42.676;26.348;2023-02-15T17:05:58;19.47;;;14.77;;
19525;SDS011;9907;42.676;26.348;2023-02-15T17:08:27;17.77;;;13.40;;
19525;SDS011;9907;42.676;26.348;2023-02-15T17:13:23;35.27;;;20.63;;
19525;SDS011;9907;42.676;26.348;2023-02-15T17:18:25;18.27;;;12.93;;
19525;SDS011;9907;42.676;26.348;2023-02-15T17:20:57;17.57;;;12.97;;
19525;SDS011;9907;42.676;26.348;2023-02-15T17:23:29;14.33;;;11.77;;
19525;SDS011;9907;42.676;26.348;2023-02-15T17:25:55;14.43;;;11.17;;
19525;SDS011;9907;42.676;26.348;2023-02-15T17:28:23;24.77;;;16.60;;
19525;SDS011;9907;42.676;26.348;2023-02-15T17:30:50;21.20;;;15.03;;
19525;SDS011;9907;42.676;26.348;2023-02-15T17:36:02;32.80;;;18.57;;
19525;SDS011;9907;42.676;26.348;2023-02-15T17:38:29;15.83;;;13.17;;
19525;SDS011;9907;42.676;26.348;2023-02-15T17:40:54;17.97;;;14.07;;
19525;SDS011;9907;42.676;26.348;2023-02-15T17:43:21;17.40;;;12.17;;
19525;SDS011;9907;42.676;26.348;2023-02-15T17:45:47;14.53;;;11.13;;
19525;SDS011;9907;42.676;26.348;2023-02-15T17:48:36;12.27;;;10.67;;
19525;SDS011;9907;42.676;26.348;2023-02-15T17:51:02;13.07;;;10.40;;
19525;SDS011;9907;42.676;26.348;2023-02-15T17:53:32;44.33;;;25.53;;
19525;SDS011;9907;42.676;26.348;2023-02-15T17:55:58;42.00;;;24.90;;
19525;SDS011;9907;42.676;26.348;2023-02-15T17:58:23;39.67;;;22.83;;
19525;SDS011;9907;42.676;26.348;2023-02-15T18:00:54;19.87;;;14.63;;
19525;SDS011;9907;42.676;26.348;2023-02-15T18:03:44;17.40;;;12.53;;
19525;SDS011;9907;42.676;26.348;2023-02-15T18:06:31;18.63;;;13.17;;
19525;SDS011;9907;42.676;26.348;2023-02-15T18:09:16;18.33;;;13.20;;
19525;SDS011;9907;42.676;26.348;2023-02-15T18:12:02;14.87;;;12.60;;
19525;SDS011;9907;42.676;26.348;2023-02-15T18:14:45;16.07;;;11.93;;
19525;SDS011;9907;42.676;26.348;2023-02-15T18:17:11;15.70;;;12.43;;
19525;SDS011;9907;42.676;26.348;2023-02-15T18:19:38;13.60;;;11.53;;
19525;SDS011;9907;42.676;26.348;2023-02-15T18:22:12;14.03;;;11.87;;
19525;SDS011;9907;42.676;26.348;2023-02-15T18:24:43;20.40;;;15.53;;
19525;SDS011;9907;42.676;26.348;2023-02-15T18:27:10;15.83;;;13.97;;
19525;SDS011;9907;42.676;26.348;2023-02-15T18:29:36;16.80;;;13.30;;
19525;SDS011;9907;42.676;26.348;2023-02-15T18:32:02;18.03;;;14.10;;
19525;SDS011;9907;42.676;26.348;2023-02-15T18:34:39;23.10;;;16.40;;
19525;SDS011;9907;42.676;26.348;2023-02-15T18:37:09;22.23;;;16.37;;